Latest Weather Observations for Coondewanna

IDW60801

Issued at 5:03 am WST Sunday 26 June 2016 (issued every 30 minutes, with the page automatically refreshed every 10 minutes)

About weather observations | Map of weather stations | Latest weather observations for WA | Other Formats
Station Details ID: 505051 Name: COONDEWANNA Lat: -22.96 Lon: 118.81 Height: 697.63 m
Data from the previous 72 hours. | See also: Recent months for locations in Western Australia
Date/Time
WST
Temp
°C
App
Temp
°C
Dew
Point
°C
Rel
Hum
%
Delta-T
°C
Wind Press
QNH
hPa
Press
MSL
hPa
Rain since
9am
mm
Dir  Spd
km/h
Gust
km/h
Spd
kts
Gust
kts
26/05:00am 9.7 7.0 8.8 94 0.5 SE 13 15 7 8 1020.6 1019.0 1.6
26/04:30am 9.9 7.2 8.8 93 0.6 ESE 13 17 7 9 1020.4 1018.8 1.6
26/04:00am 10.4 7.3 9.0 91 0.7 ESE 15 17 8 9 1020.5 1018.9 1.6
26/03:30am 10.1 7.4 8.9 92 0.6 E 13 15 7 8 1020.6 1019.0 1.6
26/03:00am 10.7 7.6 9.0 89 0.9 E 15 17 8 9 1020.7 1019.1 1.6
26/02:30am 10.3 7.9 8.7 90 0.8 ESE 11 15 6 8 1020.5 1018.9 1.6
26/02:00am 11.0 9.4 7.9 81 1.6 SSE 6 7 3 4 1020.5 1018.9 1.6
26/01:30am 11.5 9.1 7.2 75 2.1 SSE 9 11 5 6 1020.4 1018.8 1.6
26/01:00am 10.5 8.4 8.1 85 1.2 S 9 11 5 6 1020.5 1018.9 1.6
26/12:30am 11.2 9.2 8.8 85 1.2 S 9 9 5 5 1020.5 1018.9 1.6
26/12:00am 11.4 9.4 8.8 84 1.3 S 9 11 5 6 1020.7 1019.1 1.6
 
Date/Time
WST
Temp
°C
App
Temp
°C
Dew
Point
°C
Rel
Hum
%
Delta-T
°C
Wind Press
QNH
hPa
Press
MSL
hPa
Rain since
9am
mm
Dir  Spd
km/h
Gust
km/h
Spd
kts
Gust
kts
25/11:30pm 11.5 10.4 9.9 90 0.8 SE 6 9 3 5 1020.9 1019.3 1.4
25/11:00pm 12.6 10.6 10.0 84 1.4 SE 11 15 6 8 1020.9 1019.3 1.4
25/10:30pm 13.2 10.9 10.4 83 1.5 SE 13 17 7 9 1020.8 1019.2 1.4
25/10:00pm 13.6 11.3 10.6 82 1.6 SE 13 19 7 10 1020.6 1019.0 1.4
25/09:30pm 13.1 11.3 10.8 86 1.2 SSE 11 13 6 7 1020.4 1018.8 1.4
25/09:00pm 13.4 10.9 11.1 86 1.3 S 15 20 8 11 1020.3 1018.7 1.4
25/08:30pm 13.4 11.9 11.8 90 0.9 S 11 13 6 7 1020.3 1018.7 1.4
25/08:00pm 13.2 12.1 11.8 91 0.8 S 9 11 5 6 1020.2 1018.6 1.4
25/07:30pm 13.1 11.9 11.7 91 0.8 S 9 11 5 6 1019.8 1018.1 1.4
25/07:00pm 13.4 12.2 11.6 89 1.0 S 9 11 5 6 1019.4 1017.8 1.4
25/06:30pm 14.5 13.4 11.8 84 1.5 S 9 11 5 6 1019.2 1017.6 1.4
25/06:00pm 15.4 14.4 12.2 81 1.8 SSW 9 15 5 8 1018.7 1017.0 1.4
25/05:30pm 15.5 14.2 12.4 82 1.8 SW 11 13 6 7 1018.5 1016.8 1.4
25/05:00pm 16.0 14.0 12.6 80 1.9 S 15 17 8 9 1017.9 1016.3 1.4
25/04:49pm 16.1 14.1 12.8 81 1.9 S 15 19 8 10 1017.8 1016.2 1.4
25/04:30pm 16.1 13.4 12.8 81 1.9 S 19 26 10 14 1017.6 1016.0 1.4
25/04:00pm 16.6 14.1 13.5 82 1.8 SSW 19 24 10 13 1017.2 1015.5 1.4
25/03:30pm 16.3 14.7 13.8 85 1.5 SSW 15 20 8 11 1017.0 1015.3 1.4
25/03:00pm 15.8 14.7 14.2 90 0.9 SSW 13 19 7 10 1016.7 1015.0 1.4
25/02:30pm 15.5 14.0 14.2 92 0.8 SW 15 20 8 11 1016.7 1015.0 1.4
25/02:00pm 15.9 13.3 13.9 88 1.2 SSW 20 24 11 13 1016.8 1015.1 1.4
25/01:30pm 16.9 15.0 15.1 89 1.1 SW 19 22 10 12 1016.7 1015.0 1.4
25/01:00pm 17.5 16.4 14.2 81 2.0 SW 13 17 7 9 1016.8 1015.1 1.4
25/12:30pm 17.0 16.5 14.8 87 1.3 SW 11 15 6 8 1017.2 1015.5 1.4
25/12:00pm 17.1 17.0 14.9 87 1.3 SW 9 15 5 8 1017.3 1015.6 1.4
25/11:30am 17.0 17.5 15.0 88 1.2 SSW 6 9 3 5 1017.4 1015.7 1.4
25/11:00am 16.1 17.5 14.3 89 1.1 CALM 0 9 0 5 1017.6 1016.0 1.4
25/10:30am 15.2 15.7 14.1 93 0.6 SSW 4 7 2 4 1018.0 1016.4 1.4
25/10:00am 14.8 14.8 14.2 96 0.4 SW 7 9 4 5 1018.4 1016.7 1.2
25/09:30am 14.3 14.3 13.7 96 0.3 SW 6 7 3 4 1018.5 1016.8 0.6
25/09:00am 14.0 13.4 13.4 96 0.3 ENE 9 11 5 6 1018.4 1016.7 10.4
25/08:30am 13.9 13.6 13.3 96 0.3 ENE 7 9 4 5 1018.1 1016.5 10.2
25/08:00am 13.6 14.5 13.0 96 0.3 CALM 0 0 0 0 1017.8 1016.2 10.0
25/07:30am 13.6 13.4 13.1 97 0.3 ENE 6 7 3 4 1017.5 1015.9 8.8
25/07:00am 13.4 13.2 12.9 97 0.3 ENE 6 7 3 4 1017.0 1015.3 8.6
25/06:30am 13.3 13.4 12.8 97 0.3 ENE 4 6 2 3 1016.8 1015.1 8.2
25/06:00am 13.3 13.4 12.7 96 0.3 ENE 4 6 2 3 1016.3 1014.7 8.0
25/05:30am 13.3 13.0 12.7 96 0.3 ENE 6 7 3 4 1016.3 1014.7 7.4
25/05:00am 13.1 13.9 12.5 96 0.3 CALM 0 0 0 0 1015.9 1014.2 7.0
25/04:30am 13.1 12.8 12.6 97 0.3 ENE 6 9 3 5 1015.8 1014.1 7.0
25/04:00am 13.0 13.8 12.4 96 0.3 CALM 0 0 0 0 1016.0 1014.3 6.6
25/03:30am 12.9 13.6 12.3 96 0.3 CALM 0 0 0 0 1016.0 1014.3 6.2
25/03:00am 12.8 13.4 12.0 95 0.4 CALM 0 0 0 0 1016.3 1014.7 5.4
25/02:30am 13.0 13.6 11.9 93 0.6 CALM 0 0 0 0 1016.4 1014.8 4.8
25/02:00am 13.2 13.4 11.9 92 0.7 ENE 2 7 1 4 1016.7 1015.0 4.4
25/01:30am 13.5 14.1 11.9 90 0.9 CALM 0 2 0 1 1016.8 1015.1 4.2
25/01:29am 13.6 14.2 12.0 90 0.9 CALM 0 4 0 2 1016.9 1015.2 4.2
25/01:04am 13.4 13.7 12.1 92 0.7 ENE 2 6 1 3 1016.9 1015.2 4.2
25/01:00am 13.3 13.1 11.9 91 0.8 ENE 4 6 2 3 1016.9 1015.2 4.2
25/12:30am 13.3 12.2 11.9 91 0.8 ENE 9 11 5 6 1016.9 1015.2 4.2
25/12:00am 13.2 12.7 12.1 93 0.6 ENE 6 9 3 5 1017.2 1015.5 4.0
 
Date/Time
WST
Temp
°C
App
Temp
°C
Dew
Point
°C
Rel
Hum
%
Delta-T
°C
Wind Press
QNH
hPa
Press
MSL
hPa
Rain since
9am
mm
Dir  Spd
km/h
Gust
km/h
Spd
kts
Gust
kts
24/11:30pm 13.3 12.2 11.9 91 0.8 E 9 13 5 7 1017.4 1015.7 4.0
24/11:00pm 13.3 12.6 12.0 92 0.7 E 7 11 4 6 1017.7 1016.1 4.0
24/10:56pm 13.3 12.7 12.2 93 0.6 E 7 9 4 5 1017.8 1016.2 4.0
24/10:55pm 13.3 12.7 12.2 93 0.6 E 7 9 4 5 1017.8 1016.2 4.0
24/10:30pm 13.3 11.8 12.0 92 0.7 E 11 13 6 7 1017.9 1016.3 3.6
24/10:00pm 13.5 12.4 11.9 90 0.9 E 9 11 5 6 1018.0 1016.4 2.0
24/09:30pm 14.3 12.5 10.9 80 1.9 E 11 13 6 7 1018.0 1016.4 0.2
24/09:00pm 14.8 13.3 10.4 75 2.4 ENE 9 15 5 8 1018.3 1016.6 0.0
24/08:30pm 14.8 11.7 10.4 75 2.4 E 17 20 9 11 1017.5 1015.9 0.0
24/08:00pm 14.9 12.7 10.9 77 2.2 E 13 17 7 9 1017.4 1015.7 0.0
24/07:30pm 15.2 13.0 10.8 75 2.4 E 13 19 7 10 1017.4 1015.7 0.0
24/07:00pm 15.2 12.9 10.6 74 2.5 E 13 20 7 11 1017.3 1015.6 0.0
24/06:30pm 15.4 13.2 10.8 74 2.5 E 13 17 7 9 1017.0 1015.3 0.0
24/06:00pm 15.6 13.0 10.6 72 2.7 E 15 19 8 10 1016.9 1015.2 0.0
24/05:30pm 15.9 13.3 10.7 71 2.9 E 15 17 8 9 1016.7 1015.0 0.0
24/05:00pm 16.2 14.0 10.7 70 3.0 E 13 17 7 9 1016.2 1014.6 0.0
24/04:45pm 16.3 14.0 10.4 68 3.2 ENE 13 15 7 8 1016.5 1014.9 0.0
24/04:30pm 16.5 14.3 10.8 69 3.2 E 13 17 7 9 1016.3 1014.7 0.0
24/04:17pm 16.7 14.6 11.0 69 3.2 ENE 13 17 7 9 1016.2 1014.6 0.0
24/04:06pm 16.7 14.4 10.5 67 3.4 ENE 13 19 7 10 1015.9 1014.2 0.0
24/04:00pm 16.7 14.5 10.8 68 3.3 ENE 13 15 7 8 1016.0 1014.3 0.0
24/03:59pm 16.7 14.5 10.8 68 3.3 ENE 13 15 7 8 1016.0 1014.3 0.0
24/03:30pm 16.7 14.9 11.0 69 3.2 E 11 17 6 9 1015.9 1014.2 0.0
24/03:18pm 16.7 14.9 11.0 69 3.2 E 11 17 6 9 1015.9 1014.2 0.0
24/03:10pm 16.7 14.6 11.0 69 3.2 E 13 17 7 9 1015.9 1014.2 0.0
24/03:00pm 16.7 15.3 10.8 68 3.3 E 9 15 5 8 1015.9 1014.2 0.0
24/02:30pm 16.5 14.6 10.6 68 3.3 ENE 11 17 6 9 1016.1 1014.4 0.0
24/02:00pm 16.4 15.0 10.9 70 3.0 ENE 9 13 5 7 1016.2 1014.6 0.0
24/01:30pm 15.9 14.1 10.7 71 2.9 E 11 15 6 8 1016.2 1014.6 0.0
24/01:00pm 15.6 13.5 9.9 69 3.1 E 11 17 6 9 1016.8 1015.1 0.0
24/12:30pm 15.2 13.1 9.8 70 2.9 E 11 17 6 9 1017.7 1016.1 0.0
24/12:00pm 14.9 12.3 9.5 70 2.9 E 13 19 7 10 1018.1 1016.5 0.0
24/11:30am 14.5 11.5 9.1 70 2.9 E 15 20 8 11 1018.4 1016.7 0.0
24/11:00am 14.2 11.6 9.4 73 2.5 ENE 13 20 7 11 1018.7 1017.0 0.0
24/10:30am 13.9 10.0 9.3 74 2.4 E 20 26 11 14 1018.6 1016.9 0.0
24/10:00am 13.7 10.1 8.5 71 2.7 ENE 17 24 9 13 1019.2 1017.6 0.0
24/09:30am 13.5 8.5 7.9 69 2.9 E 24 30 13 16 1019.2 1017.6 0.0
24/09:00am 13.3 8.9 7.5 68 2.9 ENE 20 28 11 15 1019.5 1017.9 0.0
24/08:30am 13.3 9.4 7.3 67 3.0 ENE 17 24 9 13 1019.4 1017.8 0.0
24/08:00am 13.1 9.2 7.3 68 2.9 ENE 17 26 9 14 1019.0 1017.4 0.0
24/07:30am 13.1 9.6 7.3 68 2.9 ENE 15 20 8 11 1018.8 1017.2 0.0
24/07:00am 13.2 9.0 7.4 68 2.9 ENE 19 28 10 15 1018.4 1016.7 0.0
24/06:41am 13.2 9.5 8.1 71 2.6 ENE 17 24 9 13 1018.3 1016.6 0.0
24/06:30am 13.2 9.5 8.1 71 2.6 ENE 17 26 9 14 1018.3 1016.6 0.0
24/06:00am 13.6 10.0 8.2 70 2.8 ENE 17 24 9 13 1017.9 1016.3 0.0
24/05:39am 13.7 9.8 8.7 72 2.6 ENE 19 24 10 13 1017.6 1016.0 0.0
24/05:30am 13.7 10.3 9.0 73 2.5 E 17 24 9 13 1017.5 1015.9 0.0
24/05:00am 13.9 11.3 9.3 74 2.4 ENE 13 17 7 9 1017.4 1015.7 0.0
24/04:53am 13.9 10.9 9.1 73 2.5 ENE 15 22 8 12 1017.4 1015.7 0.0
24/04:30am 14.0 11.0 9.2 73 2.5 ENE 15 22 8 12 1017.7 1016.1 0.0
24/04:00am 14.1 11.5 9.3 73 2.5 ENE 13 20 7 11 1017.8 1016.2 0.0
24/03:30am 14.2 10.4 9.0 71 2.7 ENE 19 28 10 15 1017.6 1016.0 0.0
24/03:00am 14.3 12.0 10.5 78 2.1 ENE 13 20 7 11 1017.5 1015.9 0.0
24/02:30am 14.4 12.5 10.6 78 2.1 E 11 15 6 8 1017.6 1016.0 0.0
24/02:00am 14.6 12.3 10.4 76 2.3 ENE 13 20 7 11 1017.8 1016.2 0.0
24/01:30am 14.5 12.8 11.1 80 1.9 ENE 11 17 6 9 1018.0 1016.4 0.0
24/01:00am 14.6 13.1 10.6 77 2.2 ENE 9 15 5 8 1018.5 1016.8 0.0
24/12:30am 14.6 13.1 10.6 77 2.2 ENE 9 13 5 7 1018.6 1016.9 0.0
24/12:00am 14.5 13.2 11.1 80 1.9 E 9 11 5 6 1018.7 1017.0 0.0
 
Date/Time
WST
Temp
°C
App
Temp
°C
Dew
Point
°C
Rel
Hum
%
Delta-T
°C
Wind Press
QNH
hPa
Press
MSL
hPa
Rain since
9am
mm
Dir  Spd
km/h
Gust
km/h
Spd
kts
Gust
kts
23/11:30pm 14.7 12.6 11.1 79 2.0 E 13 17 7 9 1019.0 1017.4 0.0
23/11:00pm 14.8 12.4 11.4 80 1.9 ENE 15 24 8 13 1019.0 1017.4 0.0
23/10:30pm 15.0 12.1 11.0 77 2.2 E 17 26 9 14 1019.2 1017.6 0.0
23/10:05pm 15.0 12.2 11.2 78 2.1 E 17 22 9 12 1019.0 1017.4 0.0
23/10:00pm 15.0 12.8 10.8 76 2.3 E 13 20 7 11 1019.1 1017.5 0.0
23/09:33pm 15.0 11.8 11.4 79 2.0 ESE 19 24 10 13 1018.5 1016.8 0.0
23/09:30pm 15.1 11.7 11.3 78 2.1 ESE 20 24 11 13 1018.5 1016.8 0.0
23/09:00pm 15.2 12.0 11.2 77 2.2 ESE 19 28 10 15 1018.8 1017.2 0.0
23/08:30pm 15.3 12.1 11.9 80 1.9 ESE 20 26 11 14 1018.6 1016.9 0.0
23/08:00pm 15.4 12.2 12.0 80 1.9 ESE 20 26 11 14 1018.5 1016.8 0.0
23/07:30pm 15.5 12.6 12.3 81 1.8 ESE 19 24 10 13 1018.3 1016.6 0.0
23/07:00pm 15.6 13.1 12.4 81 1.8 ESE 17 20 9 11 1018.0 1016.4 0.0
23/06:30pm 15.5 13.0 12.3 81 1.8 ESE 17 22 9 12 1017.6 1016.0 0.0
23/06:00pm 15.5 13.5 12.6 83 1.6 ESE 15 20 8 11 1017.3 1015.6 0.0
23/05:30pm 15.6 13.2 12.5 82 1.8 ESE 17 20 9 11 1017.1 1015.4 0.0
23/05:20pm 15.7 13.3 12.6 82 1.8 ESE 17 20 9 11 1017.1 1015.4 0.0
23/05:12pm 15.7 13.3 12.6 82 1.8 SE 17 22 9 12 1017.0 1015.3 0.0
23/05:00pm 15.8 13.5 12.9 83 1.7 ESE 17 24 9 13 1016.8 1015.1 0.0
23/04:30pm 16.1 13.7 12.8 81 1.9 ESE 17 24 9 13 1016.9 1015.2 0.0
23/04:00pm 16.1 13.7 12.7 80 1.9 ESE 17 20 9 11 1016.7 1015.0 0.0
23/03:30pm 16.3 13.9 12.8 80 2.0 ESE 17 22 9 12 1016.5 1014.9 0.0
23/03:00pm 16.3 13.9 12.8 80 2.0 E 17 22 9 12 1016.4 1014.8 0.0
23/02:30pm 16.0 13.6 12.6 80 1.9 ESE 17 22 9 12 1016.7 1015.0 0.0
23/02:00pm 15.6 12.7 12.9 84 1.5 ESE 20 26 11 14 1016.5 1014.9 0.0
23/01:30pm 15.2 11.9 12.7 85 1.4 ESE 22 26 12 14 1016.9 1015.2 0.0
23/01:00pm 15.2 11.7 12.3 83 1.6 ESE 22 30 12 16 1017.2 1015.5 0.0
23/12:30pm 15.1 11.4 12.6 85 1.4 ESE 24 32 13 17 1017.7 1016.1 0.0
23/12:00pm 15.5 12.6 13.0 85 1.4 SE 20 28 11 15 1017.8 1016.2 0.0
23/11:30am 15.0 11.7 12.9 87 1.2 ESE 22 30 12 16 1018.0 1016.4 0.0
23/11:00am 15.5 12.5 13.7 89 1.0 ESE 22 30 12 16 1018.5 1016.8 0.0
23/10:30am 14.9 11.6 12.8 87 1.2 ESE 22 30 12 16 1019.1 1017.5 0.0
23/10:00am 15.0 11.4 12.9 87 1.2 ESE 24 30 13 16 1019.2 1017.6 0.0
23/09:30am 14.7 11.9 13.1 90 0.9 ESE 20 26 11 14 1019.1 1017.5 0.0
23/09:00am 14.6 11.7 13.0 90 0.9 SE 20 26 11 14 1019.0 1017.4 22.0
23/08:30am 14.8 12.0 13.2 90 0.9 ESE 20 30 11 16 1018.5 1016.8 22.0
23/08:00am 14.6 12.1 13.5 93 0.6 SE 19 26 10 14 1017.9 1016.3 22.0
23/07:30am 14.9 11.9 13.8 93 0.6 SE 22 30 12 16 1017.6 1016.0 21.8
23/07:00am 15.6 15.8 14.8 95 0.5 S 7 11 4 6 1016.9 1015.2 21.8
23/06:30am 15.6 16.0 14.8 95 0.5 S 6 7 3 4 1016.8 1015.1 21.8
23/06:00am 15.6 15.9 14.5 93 0.6 S 6 7 3 4 1016.4 1014.8 21.2
23/05:30am 15.6 16.1 15.0 96 0.4 S 6 7 3 4 1016.2 1014.6 21.2

Other Formats:

Comma delimited format used in spreadsheet applications
http://www.bom.gov.au/fwo/IDW60801/IDW60801.99312.axf

JavaScript Object Notation format (JSON) in row-major order
http://www.bom.gov.au/fwo/IDW60801/IDW60801.99312.json